createdAt,value
2023-02-21T00:00:53.742Z,65.90
2023-02-21T00:03:39.005Z,65.10
2023-02-21T00:06:27.578Z,65.20
2023-02-21T00:09:12.928Z,64.80
2023-02-21T00:12:03.221Z,65.10
2023-02-21T00:14:48.477Z,65.30
2023-02-21T00:17:34.010Z,65.20
2023-02-21T00:20:19.427Z,65.60
2023-02-21T00:23:05.527Z,65.00
2023-02-21T00:25:51.006Z,64.10
2023-02-21T00:28:36.815Z,64.50
2023-02-21T00:31:23.949Z,64.30
2023-02-21T00:34:10.912Z,64.70
2023-02-21T00:36:56.738Z,64.80
2023-02-21T00:39:42.185Z,65.90
2023-02-21T00:42:28.165Z,65.00
2023-02-21T00:45:13.457Z,64.80
2023-02-21T00:47:58.768Z,64.50
2023-02-21T00:50:44.169Z,64.90
2023-02-21T00:53:29.501Z,64.60
2023-02-21T00:56:14.938Z,63.90
2023-02-21T00:59:00.182Z,64.10
2023-02-21T01:01:45.614Z,63.90
2023-02-21T01:04:30.968Z,64.00
2023-02-21T01:07:16.563Z,63.00
2023-02-21T01:10:01.826Z,63.30
2023-02-21T01:12:47.670Z,63.30
2023-02-21T01:15:34.166Z,63.90
2023-02-21T01:18:19.416Z,64.00
2023-02-21T01:21:04.862Z,63.50
2023-02-21T01:23:52.407Z,63.40
2023-02-21T01:26:37.918Z,63.20
2023-02-21T01:29:23.347Z,63.10
2023-02-21T01:32:09.282Z,63.60
2023-02-21T01:34:57.237Z,63.60
2023-02-21T01:37:42.745Z,63.70
2023-02-21T01:40:32.786Z,64.00
2023-02-21T01:43:18.337Z,64.30
2023-02-21T01:46:09.814Z,64.10
2023-02-21T01:48:55.872Z,63.80
2023-02-21T01:51:47.144Z,64.10
2023-02-21T01:54:32.419Z,63.70
2023-02-21T01:57:21.497Z,63.80
2023-02-21T02:00:09.212Z,64.10
2023-02-21T02:03:23.163Z,64.20
2023-02-21T02:06:11.058Z,63.70
2023-02-21T02:08:56.625Z,63.90
2023-02-21T02:12:06.135Z,63.20
2023-02-21T02:14:51.754Z,63.50
2023-02-21T02:17:43.101Z,63.70
2023-02-21T02:20:40.654Z,63.80
2023-02-21T02:23:26.758Z,63.10
2023-02-21T02:26:15.296Z,63.50
2023-02-21T02:29:15.453Z,63.90
2023-02-21T02:31:51.538Z,63.60
2023-02-21T02:34:40.387Z,63.90
2023-02-21T02:37:23.843Z,63.40
2023-02-21T02:40:15.438Z,64.30
2023-02-21T02:43:21.569Z,63.80
2023-02-21T02:46:09.765Z,63.80
2023-02-21T02:48:46.386Z,63.90
2023-02-21T02:51:16.385Z,63.70
2023-02-21T02:53:44.476Z,63.30
2023-02-21T02:56:16.272Z,63.30
2023-02-21T02:58:58.177Z,63.20
2023-02-21T03:01:44.100Z,62.70
2023-02-21T03:04:11.394Z,62.90
2023-02-21T03:06:44.117Z,62.70
2023-02-21T03:09:14.086Z,61.80
2023-02-21T03:12:05.646Z,62.10
2023-02-21T03:14:50.724Z,62.00
2023-02-21T03:17:20.421Z,61.50
2023-02-21T03:19:49.664Z,61.50
2023-02-21T03:22:21.759Z,61.50
2023-02-21T03:24:50.387Z,61.00
2023-02-21T03:27:20.550Z,60.30
2023-02-21T03:29:58.588Z,61.20
2023-02-21T03:32:45.382Z,60.80
2023-02-21T03:41:22.171Z,60.80
2023-02-21T03:43:49.257Z,62.00
2023-02-21T03:46:17.010Z,62.00
2023-02-21T03:48:44.623Z,62.00
2023-02-21T03:51:19.410Z,61.80
2023-02-21T03:53:47.408Z,61.70
2023-02-21T03:56:17.231Z,61.60
2023-02-21T03:58:57.654Z,61.30
2023-02-21T04:01:24.647Z,61.60
2023-02-21T04:03:53.296Z,62.20
2023-02-21T04:06:21.568Z,62.90
2023-02-21T04:08:51.249Z,63.40
2023-02-21T04:11:23.287Z,62.80
2023-02-21T04:13:52.569Z,62.80
2023-02-21T04:16:19.511Z,63.60
2023-02-21T04:18:47.639Z,63.40
2023-02-21T04:21:18.632Z,63.60
2023-02-21T04:23:45.803Z,63.40
2023-02-21T04:26:13.161Z,63.50
2023-02-21T04:28:48.909Z,63.70
2023-02-21T04:31:18.157Z,63.20
2023-02-21T04:33:45.974Z,63.40
2023-02-21T04:36:18.271Z,63.80
2023-02-21T04:38:45.403Z,63.60
2023-02-21T04:41:12.454Z,63.50
2023-02-21T04:43:44.481Z,63.70
2023-02-21T04:46:19.065Z,63.70
2023-02-21T04:48:48.232Z,63.80
2023-02-21T04:51:17.424Z,64.00
2023-02-21T04:53:47.290Z,64.10
2023-02-21T04:56:14.750Z,64.30
2023-02-21T04:58:45.599Z,64.40
2023-02-21T05:01:13.493Z,64.30
2023-02-21T05:03:40.422Z,64.30
2023-02-21T05:06:07.321Z,64.10
2023-02-21T05:08:35.351Z,64.30
2023-02-21T05:11:02.639Z,64.50
2023-02-21T05:13:29.442Z,64.50
2023-02-21T05:15:56.290Z,64.40
2023-02-21T05:18:23.312Z,65.00
2023-02-21T05:20:50.305Z,65.60
2023-02-21T05:23:34.111Z,66.30
2023-02-21T05:26:06.997Z,66.60
2023-02-21T05:28:34.304Z,66.80
2023-02-21T05:31:01.462Z,67.20
2023-02-21T05:33:28.644Z,68.00
2023-02-21T05:35:57.300Z,68.40
2023-02-21T05:38:25.379Z,68.90
2023-02-21T05:40:52.225Z,69.00
2023-02-21T05:43:19.916Z,68.90
2023-02-21T05:45:47.058Z,69.20
2023-02-21T05:48:13.876Z,69.20
2023-02-21T05:50:40.789Z,69.40
2023-02-21T05:53:09.843Z,69.80
2023-02-21T05:55:37.512Z,70.00
2023-02-21T05:58:04.412Z,70.30
2023-02-21T06:00:31.747Z,71.30
2023-02-21T06:02:58.558Z,71.40
2023-02-21T06:05:25.622Z,71.90
2023-02-21T06:07:52.518Z,72.50
2023-02-21T06:10:20.061Z,72.60
2023-02-21T06:12:50.587Z,72.90
2023-02-21T06:15:17.715Z,73.00
2023-02-21T06:17:44.602Z,73.00
2023-02-21T06:20:15.194Z,73.60
2023-02-21T06:22:42.397Z,73.40
2023-02-21T06:25:10.249Z,73.30
2023-02-21T06:27:37.409Z,73.10
2023-02-21T06:30:05.865Z,72.70
2023-02-21T06:32:32.825Z,72.90
2023-02-21T06:34:59.633Z,73.20
2023-02-21T06:37:26.583Z,73.90
2023-02-21T06:39:53.459Z,73.50
2023-02-21T06:42:20.829Z,73.60
2023-02-21T06:44:49.156Z,74.10
2023-02-21T06:47:19.099Z,74.30
2023-02-21T06:49:45.943Z,74.40
2023-02-21T06:52:13.178Z,74.60
2023-02-21T06:54:40.172Z,74.80
2023-02-21T06:57:07.025Z,74.80
2023-02-21T06:59:34.073Z,74.50
2023-02-21T07:02:00.969Z,74.40
2023-02-21T07:04:27.910Z,74.40
2023-02-21T07:06:57.309Z,74.80
2023-02-21T07:09:25.510Z,74.80
2023-02-21T07:11:52.402Z,74.90
2023-02-21T07:14:21.019Z,75.30
2023-02-21T07:16:48.121Z,75.00
2023-02-21T07:21:44.405Z,74.90
2023-02-21T07:24:11.853Z,74.40
2023-02-21T07:26:38.807Z,74.20
2023-02-21T07:29:06.466Z,73.40
2023-02-21T07:31:33.963Z,73.10
2023-02-21T07:34:03.437Z,73.30
2023-02-21T07:36:31.638Z,73.80
2023-02-21T07:38:58.385Z,73.90
2023-02-21T07:41:25.399Z,73.70
2023-02-21T07:43:52.326Z,73.80
2023-02-21T07:46:21.522Z,73.70
2023-02-21T07:48:48.403Z,73.60
2023-02-21T07:51:15.757Z,72.80
2023-02-21T07:53:43.523Z,70.40
2023-02-21T07:56:10.616Z,70.00
2023-02-21T07:58:37.585Z,69.00
2023-02-21T08:01:06.780Z,69.40
2023-02-21T08:03:37.970Z,70.10
2023-02-21T08:06:05.181Z,70.10
2023-02-21T08:08:34.621Z,69.80
2023-02-21T08:11:01.645Z,68.40
2023-02-21T08:13:28.470Z,66.30
2023-02-21T08:15:55.266Z,64.50
2023-02-21T08:18:26.555Z,64.80
2023-02-21T08:20:55.149Z,65.40
2023-02-21T08:23:22.724Z,64.60
2023-02-21T08:25:49.997Z,63.60
2023-02-21T08:28:17.867Z,63.20
2023-02-21T08:30:44.822Z,62.50
2023-02-21T08:33:11.654Z,63.40
2023-02-21T08:35:38.658Z,63.70
2023-02-21T08:38:05.513Z,64.30
2023-02-21T08:40:37.993Z,62.50
2023-02-21T08:43:06.494Z,61.60
2023-02-21T08:45:33.606Z,58.90
2023-02-21T08:48:00.425Z,57.50
2023-02-21T08:50:28.562Z,55.50
2023-02-21T08:52:56.527Z,54.90
2023-02-21T08:55:24.864Z,53.90
2023-02-21T08:57:53.383Z,52.80
2023-02-21T09:00:23.383Z,52.90
2023-02-21T09:02:52.134Z,52.60
2023-02-21T09:05:24.714Z,51.70
2023-02-21T09:07:55.214Z,51.10
2023-02-21T09:10:22.254Z,50.90
2023-02-21T09:12:49.080Z,50.60
2023-02-21T09:15:16.556Z,51.00
2023-02-21T09:17:44.118Z,50.50
2023-02-21T09:20:16.248Z,50.60
2023-02-21T09:22:45.163Z,50.40
2023-02-21T09:25:13.194Z,50.10
2023-02-21T09:27:40.537Z,50.10
2023-02-21T09:30:18.531Z,50.30
2023-02-21T09:32:45.452Z,50.90
2023-02-21T09:35:15.406Z,50.30
2023-02-21T09:37:43.660Z,50.40
2023-02-21T09:40:49.015Z,51.20
2023-02-21T09:43:32.061Z,51.00
2023-02-21T09:46:03.639Z,51.00
2023-02-21T09:48:31.866Z,51.00
2023-02-21T09:51:02.156Z,51.30
2023-02-21T09:53:38.255Z,50.80
2023-02-21T09:56:28.268Z,50.10
2023-02-21T09:58:56.590Z,50.70
2023-02-21T10:01:41.163Z,49.20
2023-02-21T10:04:19.754Z,50.00
2023-02-21T10:06:59.839Z,48.90
2023-02-21T10:09:47.968Z,49.60
2023-02-21T10:12:41.417Z,49.20
2023-02-21T10:15:38.660Z,49.60
2023-02-21T10:18:27.964Z,50.00
2023-02-21T10:21:04.889Z,50.00
2023-02-21T10:23:43.436Z,50.50
2023-02-21T10:26:19.708Z,50.40
2023-02-21T10:28:46.908Z,50.80
2023-02-21T10:31:24.610Z,50.80
2023-02-21T10:33:51.809Z,50.40
2023-02-21T10:36:23.437Z,50.60
2023-02-21T10:39:09.928Z,50.70
2023-02-21T10:41:40.025Z,51.90
2023-02-21T10:44:27.085Z,51.90
2023-02-21T10:47:16.177Z,52.60
2023-02-21T10:50:08.084Z,52.30
2023-02-21T10:52:49.050Z,52.10
2023-02-21T10:55:31.717Z,52.10
2023-02-21T10:58:07.688Z,51.80
2023-02-21T11:00:41.882Z,52.10
2023-02-21T11:03:27.524Z,51.90
2023-02-21T11:05:59.825Z,52.30
2023-02-21T11:08:44.968Z,51.50
2023-02-21T11:11:12.179Z,52.20
2023-02-21T11:13:39.134Z,51.90
2023-02-21T11:16:20.029Z,52.80
2023-02-21T11:18:46.817Z,53.40
2023-02-21T11:21:19.014Z,51.70
2023-02-21T11:23:51.473Z,51.20
2023-02-21T11:26:19.273Z,50.50
2023-02-21T11:28:48.153Z,50.40
2023-02-21T11:31:26.953Z,51.30
2023-02-21T11:34:05.491Z,51.00
2023-02-21T11:36:38.479Z,50.60
2023-02-21T11:39:18.652Z,51.10
2023-02-21T11:42:00.465Z,50.10
2023-02-21T11:44:32.295Z,50.30
2023-02-21T11:47:25.730Z,50.40
2023-02-21T11:50:10.628Z,49.20
2023-02-21T11:52:44.237Z,48.70
2023-02-21T11:55:21.995Z,49.10
2023-02-21T11:57:57.640Z,50.00
2023-02-21T12:00:39.958Z,49.80
2023-02-21T12:03:28.406Z,49.80
2023-02-21T12:06:03.046Z,50.30
2023-02-21T12:08:51.361Z,49.60
2023-02-21T12:12:03.571Z,49.90
2023-02-21T12:14:42.561Z,49.50
2023-02-21T12:17:24.838Z,49.00
2023-02-21T12:20:13.112Z,47.90
2023-02-21T12:22:57.936Z,47.50
2023-02-21T12:26:03.625Z,47.50
2023-02-21T12:28:42.300Z,48.30
2023-02-21T12:31:26.369Z,49.50
2023-02-21T12:34:24.345Z,48.40
2023-02-21T12:37:10.526Z,48.70
2023-02-21T12:39:54.116Z,46.80
2023-02-21T12:42:51.352Z,47.00
2023-02-21T12:45:45.936Z,49.00
2023-02-21T12:48:21.789Z,48.10
2023-02-21T12:51:00.473Z,49.00
2023-02-21T12:53:53.644Z,48.20
2023-02-21T12:56:48.053Z,47.50
2023-02-21T12:59:27.451Z,47.90
2023-02-21T13:02:10.166Z,47.60
2023-02-21T13:04:54.511Z,48.30
2023-02-21T13:07:37.877Z,47.90
2023-02-21T13:10:22.189Z,47.80
2023-02-21T13:13:13.517Z,48.00
2023-02-21T13:15:43.837Z,48.00
2023-02-21T13:18:19.843Z,47.90
2023-02-21T13:20:57.016Z,48.60
2023-02-21T13:24:01.868Z,49.00
2023-02-21T13:27:07.623Z,48.60
2023-02-21T13:29:39.098Z,48.50
2023-02-21T13:32:13.572Z,48.70
2023-02-21T13:35:01.923Z,49.20
2023-02-21T13:37:32.769Z,49.60
2023-02-21T13:40:09.469Z,48.90
2023-02-21T13:42:39.057Z,49.10
2023-02-21T13:45:23.010Z,49.20
2023-02-21T13:47:52.868Z,48.80
2023-02-21T13:50:38.463Z,48.10
2023-02-21T13:53:08.705Z,48.70
2023-02-21T13:55:37.114Z,49.10
2023-02-21T13:58:05.440Z,49.60
2023-02-21T14:00:32.453Z,49.30
2023-02-21T14:03:00.513Z,49.30
2023-02-21T14:05:50.425Z,49.00
2023-02-21T14:08:27.787Z,49.00
2023-02-21T14:10:59.752Z,49.40
2023-02-21T14:13:38.694Z,49.50
2023-02-21T14:16:15.441Z,49.70
2023-02-21T14:19:01.737Z,49.80
2023-02-21T14:21:41.230Z,49.80
2023-02-21T14:24:16.234Z,49.50
2023-02-21T14:26:53.797Z,49.80
2023-02-21T14:29:31.843Z,50.90
2023-02-21T14:32:04.775Z,50.20
2023-02-21T14:34:37.605Z,50.70
2023-02-21T14:37:13.782Z,50.90
2023-02-21T14:39:44.357Z,50.10
2023-02-21T14:42:14.293Z,49.50
2023-02-21T14:45:25.652Z,50.20
2023-02-21T14:47:55.539Z,51.30
2023-02-21T14:50:43.733Z,49.60
2023-02-21T14:53:48.424Z,48.90
2023-02-21T14:56:46.254Z,50.10
2023-02-21T14:59:16.108Z,51.90
2023-02-21T15:01:43.052Z,50.60
2023-02-21T15:04:32.267Z,49.60
2023-02-21T15:07:08.326Z,48.90
2023-02-21T15:09:35.733Z,49.00
2023-02-21T15:12:08.181Z,48.70
2023-02-21T15:14:41.717Z,49.10
2023-02-21T15:17:16.805Z,49.40
2023-02-21T15:19:44.668Z,49.60
2023-02-21T15:22:14.624Z,49.80
2023-02-21T15:24:42.772Z,50.90
2023-02-21T15:27:13.729Z,51.50
2023-02-21T15:29:41.636Z,50.50
2023-02-21T15:32:12.601Z,50.50
2023-02-21T15:34:43.886Z,50.20
2023-02-21T15:37:39.257Z,50.50
2023-02-21T15:40:22.170Z,50.40
2023-02-21T15:42:51.447Z,50.70
2023-02-21T15:45:30.613Z,50.90
2023-02-21T15:48:00.135Z,50.80
2023-02-21T15:50:37.189Z,51.40
2023-02-21T15:53:24.770Z,51.40
2023-02-21T15:55:53.526Z,51.40
2023-02-21T15:58:26.929Z,52.10
2023-02-21T16:01:11.736Z,52.60
2023-02-21T16:03:44.114Z,53.00
2023-02-21T16:06:32.567Z,53.30
2023-02-21T16:09:02.226Z,53.30
2023-02-21T16:11:49.639Z,53.70
2023-02-21T16:14:40.978Z,53.90
2023-02-21T16:17:27.297Z,54.20
2023-02-21T16:19:58.652Z,54.50
2023-02-21T16:22:30.629Z,55.00
2023-02-21T16:25:08.456Z,55.40
2023-02-21T16:27:35.394Z,55.10
2023-02-21T16:30:04.264Z,55.30
2023-02-21T16:32:31.556Z,55.90
2023-02-21T16:34:59.160Z,56.40
2023-02-21T16:37:28.145Z,57.10
2023-02-21T16:39:55.369Z,56.40
2023-02-21T16:42:22.626Z,56.30
2023-02-21T16:44:50.069Z,56.50
2023-02-21T16:47:20.328Z,57.10
2023-02-21T16:49:47.586Z,57.40
2023-02-21T16:52:16.342Z,57.60
2023-02-21T16:54:43.805Z,58.00
2023-02-21T16:57:11.749Z,59.00
2023-02-21T16:59:38.974Z,59.70
2023-02-21T17:02:06.733Z,60.10
2023-02-21T17:04:34.080Z,60.60
2023-02-21T17:07:04.614Z,59.80
2023-02-21T17:09:33.634Z,60.00
2023-02-21T17:12:00.967Z,60.00
2023-02-21T17:14:28.042Z,60.90
2023-02-21T17:16:56.444Z,62.40
2023-02-21T17:19:24.896Z,62.30
2023-02-21T17:21:53.908Z,62.50
2023-02-21T17:24:21.150Z,62.00
2023-02-21T17:26:48.376Z,62.30
2023-02-21T17:29:15.380Z,62.20
2023-02-21T17:31:42.491Z,61.90
2023-02-21T17:34:11.973Z,61.50
2023-02-21T17:36:39.038Z,61.80
2023-02-21T17:39:07.268Z,62.10
2023-02-21T17:41:34.912Z,62.10
2023-02-21T17:44:01.999Z,62.90
2023-02-21T17:46:29.078Z,62.60
2023-02-21T17:48:56.071Z,62.80
2023-02-21T17:51:24.894Z,62.80
2023-02-21T17:53:52.214Z,63.10
2023-02-21T17:56:21.210Z,63.10
2023-02-21T17:58:48.462Z,63.30
2023-02-21T18:01:18.742Z,63.70
2023-02-21T18:03:47.401Z,64.00
2023-02-21T18:06:15.384Z,64.00
2023-02-21T18:08:44.956Z,64.10
2023-02-21T18:11:13.774Z,64.50
2023-02-21T18:13:41.314Z,64.90
2023-02-21T18:16:08.522Z,65.50
2023-02-21T18:18:36.455Z,65.60
2023-02-21T18:21:03.651Z,65.40
2023-02-21T18:23:31.482Z,65.10
2023-02-21T18:25:58.809Z,65.30
2023-02-21T18:28:26.764Z,65.40
2023-02-21T18:30:54.941Z,65.30
2023-02-21T18:33:24.793Z,65.30
2023-02-21T18:35:51.777Z,65.10
2023-02-21T18:38:18.754Z,65.10
2023-02-21T18:40:46.738Z,65.10
2023-02-21T18:43:27.168Z,65.20
2023-02-21T18:45:55.885Z,65.20
2023-02-21T18:48:24.638Z,65.20
2023-02-21T18:50:52.009Z,65.40
2023-02-21T18:53:19.165Z,65.30
2023-02-21T18:55:46.220Z,65.50
2023-02-21T18:58:13.241Z,65.00
2023-02-21T19:00:40.977Z,64.40
2023-02-21T19:03:08.892Z,64.50
2023-02-21T19:05:35.933Z,65.00
2023-02-21T19:08:02.911Z,65.30
2023-02-21T19:10:31.091Z,66.00
2023-02-21T19:12:59.580Z,66.00
2023-02-21T19:15:26.703Z,65.10
2023-02-21T19:17:53.711Z,65.40
2023-02-21T19:20:21.249Z,65.70
2023-02-21T19:22:48.319Z,65.90
2023-02-21T19:25:17.044Z,66.50
2023-02-21T19:27:45.342Z,67.40
2023-02-21T19:30:14.301Z,66.90
2023-02-21T19:32:41.451Z,67.30
2023-02-21T19:35:08.600Z,67.50
2023-02-21T19:37:36.748Z,68.30
2023-02-21T19:40:07.864Z,68.00
2023-02-21T19:42:35.830Z,67.90
2023-02-21T19:45:02.862Z,68.00
2023-02-21T19:47:30.223Z,67.00
2023-02-21T19:49:57.338Z,66.50
2023-02-21T19:52:24.290Z,67.20
2023-02-21T19:54:51.228Z,68.00
2023-02-21T19:57:18.373Z,68.60
2023-02-21T19:59:45.332Z,68.50
2023-02-21T20:02:13.119Z,68.50
2023-02-21T20:04:41.627Z,69.30
2023-02-21T20:07:08.682Z,68.70
2023-02-21T20:09:35.672Z,68.80
2023-02-21T20:12:03.356Z,68.70
2023-02-21T20:14:30.571Z,68.60
2023-02-21T20:16:57.538Z,68.50
2023-02-21T20:19:25.206Z,68.50
2023-02-21T20:21:52.116Z,68.50
2023-02-21T20:24:20.261Z,68.70
2023-02-21T20:26:54.702Z,68.30
2023-02-21T20:29:23.592Z,68.20
2023-02-21T20:31:50.510Z,68.10
2023-02-21T20:34:17.665Z,68.60
2023-02-21T20:36:46.081Z,68.10
2023-02-21T20:39:28.522Z,66.70
2023-02-21T20:41:56.959Z,66.00
2023-02-21T20:44:25.798Z,65.80
2023-02-21T20:46:52.938Z,66.70
2023-02-21T20:49:21.411Z,66.60
2023-02-21T20:51:49.323Z,67.00
2023-02-21T20:54:20.125Z,69.30
2023-02-21T20:56:49.113Z,70.40
2023-02-21T20:59:22.890Z,70.60
2023-02-21T21:01:50.330Z,70.50
2023-02-21T21:04:20.048Z,70.60
2023-02-21T21:06:47.976Z,70.20
2023-02-21T21:09:18.024Z,70.30
2023-02-21T21:11:45.555Z,70.20
2023-02-21T21:14:16.319Z,69.90
2023-02-21T21:16:43.810Z,70.10
2023-02-21T21:19:11.535Z,72.90
2023-02-21T21:21:38.492Z,72.40
2023-02-21T21:24:07.310Z,72.00
2023-02-21T21:26:34.720Z,70.10
2023-02-21T21:29:01.992Z,68.80
2023-02-21T21:31:28.944Z,69.60
2023-02-21T21:33:56.514Z,69.40
2023-02-21T21:36:23.549Z,68.90
2023-02-21T21:38:50.448Z,69.40
2023-02-21T21:41:17.899Z,68.50
2023-02-21T21:43:45.994Z,69.20
2023-02-21T21:46:14.388Z,70.90
2023-02-21T21:48:45.021Z,69.40
2023-02-21T21:51:14.152Z,69.80
2023-02-21T21:53:41.617Z,69.70
2023-02-21T21:56:08.704Z,69.80
2023-02-21T21:58:35.693Z,69.40
2023-02-21T22:01:05.533Z,69.60
2023-02-21T22:03:34.829Z,69.30
2023-02-21T22:06:02.032Z,69.40
2023-02-21T22:08:29.170Z,70.50
2023-02-21T22:10:56.326Z,71.10
2023-02-21T22:13:23.524Z,71.50
2023-02-21T22:15:50.488Z,72.00
2023-02-21T22:18:19.329Z,72.20
2023-02-21T22:20:49.956Z,72.30
2023-02-21T22:23:21.304Z,72.70
2023-02-21T22:25:49.143Z,73.60
2023-02-21T22:28:18.717Z,73.50
2023-02-21T22:30:46.253Z,73.00
2023-02-21T22:33:18.756Z,71.50
2023-02-21T22:35:47.283Z,70.90
2023-02-21T22:38:17.449Z,71.10
2023-02-21T22:40:46.363Z,72.10
2023-02-21T22:43:14.065Z,72.70
2023-02-21T22:45:44.454Z,73.00
2023-02-21T22:48:11.739Z,72.90
2023-02-21T22:50:39.640Z,72.10
2023-02-21T22:53:09.606Z,71.70
2023-02-21T22:55:37.716Z,71.20
2023-02-21T22:58:08.027Z,71.30
2023-02-21T23:00:36.078Z,71.20
2023-02-21T23:03:18.247Z,71.00
2023-02-21T23:05:50.289Z,71.70
2023-02-21T23:08:23.007Z,72.90
2023-02-21T23:10:50.079Z,72.70
2023-02-21T23:13:23.291Z,73.30
2023-02-21T23:15:51.279Z,73.50
2023-02-21T23:18:23.061Z,72.70
2023-02-21T23:20:53.155Z,73.60
2023-02-21T23:23:22.260Z,72.80
2023-02-21T23:25:49.257Z,72.60
2023-02-21T23:28:16.604Z,72.70
2023-02-21T23:30:43.675Z,73.10
2023-02-21T23:33:24.169Z,73.20
2023-02-21T23:35:53.084Z,74.00
2023-02-21T23:38:23.342Z,73.70
2023-02-21T23:41:02.165Z,74.00
2023-02-21T23:43:35.990Z,73.90
2023-02-21T23:46:07.198Z,73.60
2023-02-21T23:48:34.336Z,73.30
2023-02-21T23:51:01.360Z,73.40
2023-02-21T23:53:31.913Z,73.10
2023-02-21T23:56:00.780Z,73.70
2023-02-21T23:58:31.733Z,73.60
